sensor_id;sensor_type;location;lat;lon;timestamp;pressure;altitude;pressure_sealevel;temperature;humidity
83894;BME280;73920;51.902;6.374;2023-12-20T00:01:19;101467.37;;;6.35;89.75
83894;BME280;73920;51.902;6.374;2023-12-20T00:03:45;101478.91;;;6.34;89.59
83894;BME280;73920;51.902;6.374;2023-12-20T00:06:11;101480.66;;;6.35;89.65
83894;BME280;73920;51.902;6.374;2023-12-20T00:08:37;101480.53;;;6.40;89.72
83894;BME280;73920;51.902;6.374;2023-12-20T00:11:04;101476.91;;;6.42;89.65
83894;BME280;73920;51.902;6.374;2023-12-20T00:13:30;101469.91;;;6.40;89.17
83894;BME280;73920;51.902;6.374;2023-12-20T00:15:56;101477.03;;;6.38;89.10
83894;BME280;73920;51.902;6.374;2023-12-20T00:18:23;101472.78;;;6.32;89.10
83894;BME280;73920;51.902;6.374;2023-12-20T00:20:50;101474.69;;;6.27;89.02
83894;BME280;73920;51.902;6.374;2023-12-20T00:23:16;101470.44;;;6.20;89.35
83894;BME280;73920;51.902;6.374;2023-12-20T00:25:42;101468.88;;;6.13;88.94
83894;BME280;73920;51.902;6.374;2023-12-20T00:28:08;101463.72;;;6.07;89.50
83894;BME280;73920;51.902;6.374;2023-12-20T00:30:34;101465.62;;;6.02;89.44
83894;BME280;73920;51.902;6.374;2023-12-20T00:33:00;101470.16;;;5.97;89.52
83894;BME280;73920;51.902;6.374;2023-12-20T00:35:27;101468.53;;;5.93;89.73
83894;BME280;73920;51.902;6.374;2023-12-20T00:37:53;101465.91;;;5.90;89.65
83894;BME280;73920;51.902;6.374;2023-12-20T00:40:19;101466.94;;;5.86;89.62
83894;BME280;73920;51.902;6.374;2023-12-20T00:42:46;101468.78;;;5.81;89.62
83894;BME280;73920;51.902;6.374;2023-12-20T00:45:12;101472.34;;;5.80;89.70
83894;BME280;73920;51.902;6.374;2023-12-20T00:47:38;101476.81;;;5.78;89.82
83894;BME280;73920;51.902;6.374;2023-12-20T00:50:06;101483.84;;;5.79;90.10
83894;BME280;73920;51.902;6.374;2023-12-20T00:52:32;101477.50;;;5.87;90.06
83894;BME280;73920;51.902;6.374;2023-12-20T00:54:58;101475.53;;;5.94;89.97
83894;BME280;73920;51.902;6.374;2023-12-20T00:57:24;101471.88;;;6.00;89.73
83894;BME280;73920;51.902;6.374;2023-12-20T00:59:51;101464.72;;;6.03;89.81
83894;BME280;73920;51.902;6.374;2023-12-20T01:02:17;101469.06;;;6.06;89.69
83894;BME280;73920;51.902;6.374;2023-12-20T01:04:43;101467.37;;;6.03;89.47
83894;BME280;73920;51.902;6.374;2023-12-20T01:07:09;101472.78;;;5.99;89.30
83894;BME280;73920;51.902;6.374;2023-12-20T01:09:36;101478.09;;;5.99;89.43
83894;BME280;73920;51.902;6.374;2023-12-20T01:12:02;101473.78;;;5.94;89.50
83894;BME280;73920;51.902;6.374;2023-12-20T01:14:28;101465.88;;;5.91;89.43
83894;BME280;73920;51.902;6.374;2023-12-20T01:16:54;101470.38;;;5.89;89.43
83894;BME280;73920;51.902;6.374;2023-12-20T01:19:21;101461.63;;;5.86;89.48
83894;BME280;73920;51.902;6.374;2023-12-20T01:21:47;101455.53;;;5.79;89.42
83894;BME280;73920;51.902;6.374;2023-12-20T01:24:13;101453.87;;;5.75;89.61
83894;BME280;73920;51.902;6.374;2023-12-20T01:26:39;101462.84;;;5.71;89.67
83894;BME280;73920;51.902;6.374;2023-12-20T01:29:05;101467.28;;;5.71;89.50
83894;BME280;73920;51.902;6.374;2023-12-20T01:31:31;101469.88;;;5.72;89.56
83894;BME280;73920;51.902;6.374;2023-12-20T01:33:58;101468.09;;;5.73;89.47
83894;BME280;73920;51.902;6.374;2023-12-20T01:36:24;101475.19;;;5.72;89.71
83894;BME280;73920;51.902;6.374;2023-12-20T01:38:50;101475.25;;;5.69;89.42
83894;BME280;73920;51.902;6.374;2023-12-20T01:41:16;101471.81;;;5.66;89.45
83894;BME280;73920;51.902;6.374;2023-12-20T01:43:42;101476.28;;;5.64;89.67
83894;BME280;73920;51.902;6.374;2023-12-20T01:46:09;101465.81;;;5.58;89.49
83894;BME280;73920;51.902;6.374;2023-12-20T01:48:36;101470.31;;;5.54;89.68
83894;BME280;73920;51.902;6.374;2023-12-20T01:51:03;101460.69;;;5.50;89.69
83894;BME280;73920;51.902;6.374;2023-12-20T01:53:30;101474.91;;;5.47;89.72
83894;BME280;73920;51.902;6.374;2023-12-20T01:55:58;101475.88;;;5.43;89.72
83894;BME280;73920;51.902;6.374;2023-12-20T01:58:25;101468.88;;;5.41;89.84
83894;BME280;73920;51.902;6.374;2023-12-20T02:00:52;101468.88;;;5.41;89.94
83894;BME280;73920;51.902;6.374;2023-12-20T02:03:18;101478.63;;;5.39;89.88
83894;BME280;73920;51.902;6.374;2023-12-20T02:05:45;101476.06;;;5.36;89.83
83894;BME280;73920;51.902;6.374;2023-12-20T02:08:12;101483.19;;;5.34;89.78
83894;BME280;73920;51.902;6.374;2023-12-20T02:10:39;101477.94;;;5.31;89.79
83894;BME280;73920;51.902;6.374;2023-12-20T02:13:06;101485.13;;;5.26;89.80
83894;BME280;73920;51.902;6.374;2023-12-20T02:15:32;101483.38;;;5.25;89.80
83894;BME280;73920;51.902;6.374;2023-12-20T02:17:59;101483.44;;;5.22;89.97
83894;BME280;73920;51.902;6.374;2023-12-20T02:20:25;101479.03;;;5.22;89.98
83894;BME280;73920;51.902;6.374;2023-12-20T02:22:51;101480.63;;;5.29;89.83
83894;BME280;73920;51.902;6.374;2023-12-20T02:25:17;101449.12;;;5.17;89.71
83894;BME280;73920;51.902;6.374;2023-12-20T02:27:44;101478.78;;;5.33;89.85
83894;BME280;73920;51.902;6.374;2023-12-20T02:30:10;101479.56;;;5.38;90.00
83894;BME280;73920;51.902;6.374;2023-12-20T02:32:37;101482.06;;;5.44;89.74
83894;BME280;73920;51.902;6.374;2023-12-20T02:35:03;101483.63;;;5.53;89.87
83894;BME280;73920;51.902;6.374;2023-12-20T02:37:30;101482.59;;;5.58;89.87
83894;BME280;73920;51.902;6.374;2023-12-20T02:39:56;101486.94;;;5.62;89.61
83894;BME280;73920;51.902;6.374;2023-12-20T02:42:22;101467.53;;;5.60;89.51
83894;BME280;73920;51.902;6.374;2023-12-20T02:44:48;101452.69;;;5.53;89.42
83894;BME280;73920;51.902;6.374;2023-12-20T02:47:17;101453.69;;;5.47;89.41
83894;BME280;73920;51.902;6.374;2023-12-20T02:49:43;101452.09;;;5.40;89.50
83894;BME280;73920;51.902;6.374;2023-12-20T02:52:10;101454.91;;;5.34;89.60
83894;BME280;73920;51.902;6.374;2023-12-20T02:54:36;101454.03;;;5.32;89.73
83894;BME280;73920;51.902;6.374;2023-12-20T02:57:03;101459.41;;;5.29;89.58
83894;BME280;73920;51.902;6.374;2023-12-20T02:59:29;101461.25;;;5.27;89.80
83894;BME280;73920;51.902;6.374;2023-12-20T03:01:55;101460.37;;;5.25;89.76
83894;BME280;73920;51.902;6.374;2023-12-20T03:04:21;101461.31;;;5.24;89.86
83894;BME280;73920;51.902;6.374;2023-12-20T03:06:47;101454.19;;;5.26;90.10
83894;BME280;73920;51.902;6.374;2023-12-20T03:09:14;101448.81;;;5.29;90.14
83894;BME280;73920;51.902;6.374;2023-12-20T03:11:40;101434.59;;;5.32;90.14
83894;BME280;73920;51.902;6.374;2023-12-20T03:14:06;101436.34;;;5.34;89.91
83894;BME280;73920;51.902;6.374;2023-12-20T03:16:32;101438.03;;;5.37;90.00
83894;BME280;73920;51.902;6.374;2023-12-20T03:18:58;101438.00;;;5.38;89.92
83894;BME280;73920;51.902;6.374;2023-12-20T03:21:25;101447.75;;;5.38;90.21
83894;BME280;73920;51.902;6.374;2023-12-20T03:23:51;101439.72;;;5.39;89.90
83894;BME280;73920;51.902;6.374;2023-12-20T03:26:17;101431.75;;;5.41;89.92
83894;BME280;73920;51.902;6.374;2023-12-20T03:28:44;101434.28;;;5.45;90.00
83894;BME280;73920;51.902;6.374;2023-12-20T03:31:11;101434.13;;;5.52;90.03
83894;BME280;73920;51.902;6.374;2023-12-20T03:33:37;101432.25;;;5.57;90.08
83894;BME280;73920;51.902;6.374;2023-12-20T03:36:03;101438.22;;;5.65;89.86
83894;BME280;73920;51.902;6.374;2023-12-20T03:38:30;101439.00;;;5.70;89.47
83894;BME280;73920;51.902;6.374;2023-12-20T03:40:56;101434.47;;;5.73;89.73
83894;BME280;73920;51.902;6.374;2023-12-20T03:43:22;101423.97;;;5.69;89.56
83894;BME280;73920;51.902;6.374;2023-12-20T03:45:48;101417.78;;;5.68;89.49
83894;BME280;73920;51.902;6.374;2023-12-20T03:48:14;101417.09;;;5.62;89.61
83894;BME280;73920;51.902;6.374;2023-12-20T03:50:41;101420.78;;;5.56;89.51
83894;BME280;73920;51.902;6.374;2023-12-20T03:53:07;101413.00;;;5.49;89.68
83894;BME280;73920;51.902;6.374;2023-12-20T03:55:33;101422.84;;;5.43;89.72
83894;BME280;73920;51.902;6.374;2023-12-20T03:57:59;101416.78;;;5.38;89.72
83894;BME280;73920;51.902;6.374;2023-12-20T04:00:25;101423.06;;;5.34;89.82
83894;BME280;73920;51.902;6.374;2023-12-20T04:02:51;101421.41;;;5.30;89.97
83894;BME280;73920;51.902;6.374;2023-12-20T04:05:18;101410.03;;;5.25;90.14
83894;BME280;73920;51.902;6.374;2023-12-20T04:07:44;101418.94;;;5.23;90.02
83894;BME280;73920;51.902;6.374;2023-12-20T04:10:10;101425.19;;;5.20;90.13
83894;BME280;73920;51.902;6.374;2023-12-20T04:12:36;101432.28;;;5.18;90.12
83894;BME280;73920;51.902;6.374;2023-12-20T04:15:03;101433.25;;;5.14;90.26
83894;BME280;73920;51.902;6.374;2023-12-20T04:17:30;101437.75;;;5.11;90.21
83894;BME280;73920;51.902;6.374;2023-12-20T04:19:56;101438.62;;;5.11;90.37
83894;BME280;73920;51.902;6.374;2023-12-20T04:22:22;101427.16;;;5.11;90.33
83894;BME280;73920;51.902;6.374;2023-12-20T04:24:48;101427.22;;;5.09;90.40
83894;BME280;73920;51.902;6.374;2023-12-20T04:27:15;101420.16;;;5.08;90.54
83894;BME280;73920;51.902;6.374;2023-12-20T04:29:41;101420.16;;;5.07;90.42
83894;BME280;73920;51.902;6.374;2023-12-20T04:32:07;101422.88;;;5.05;90.53
83894;BME280;73920;51.902;6.374;2023-12-20T04:34:33;101414.03;;;5.06;90.55
83894;BME280;73920;51.902;6.374;2023-12-20T04:36:59;101423.69;;;5.07;90.61
83894;BME280;73920;51.902;6.374;2023-12-20T04:39:26;101420.97;;;5.10;90.78
83894;BME280;73920;51.902;6.374;2023-12-20T04:41:52;101427.84;;;5.20;91.08
83894;BME280;73920;51.902;6.374;2023-12-20T04:44:18;101428.41;;;5.33;90.77
83894;BME280;73920;51.902;6.374;2023-12-20T04:46:44;101422.00;;;5.41;90.66
83894;BME280;73920;51.902;6.374;2023-12-20T04:49:11;101420.06;;;5.50;90.33
83894;BME280;73920;51.902;6.374;2023-12-20T04:54:13;101434.84;;;5.58;90.04
83894;BME280;73920;51.902;6.374;2023-12-20T04:56:39;101425.94;;;5.61;90.00
83894;BME280;73920;51.902;6.374;2023-12-20T04:59:05;101427.66;;;5.63;89.72
83894;BME280;73920;51.902;6.374;2023-12-20T05:01:31;101425.88;;;5.64;89.68
83894;BME280;73920;51.902;6.374;2023-12-20T05:03:57;101435.53;;;5.68;89.83
83894;BME280;73920;51.902;6.374;2023-12-20T05:06:24;101426.53;;;5.72;89.60
83894;BME280;73920;51.902;6.374;2023-12-20T05:08:50;101428.28;;;5.73;89.55
83894;BME280;73920;51.902;6.374;2023-12-20T05:11:16;101426.63;;;5.69;89.52
83894;BME280;73920;51.902;6.374;2023-12-20T05:13:42;101426.63;;;5.69;89.29
83894;BME280;73920;51.902;6.374;2023-12-20T05:16:08;101422.25;;;5.68;89.46
83894;BME280;73920;51.902;6.374;2023-12-20T05:18:35;101404.88;;;5.55;89.39
83894;BME280;73920;51.902;6.374;2023-12-20T05:21:01;101423.19;;;5.65;89.44
83894;BME280;73920;51.902;6.374;2023-12-20T05:23:27;101405.31;;;5.72;89.55
83894;BME280;73920;51.902;6.374;2023-12-20T05:25:53;101407.00;;;5.76;89.58
83894;BME280;73920;51.902;6.374;2023-12-20T05:28:19;101395.34;;;5.81;89.35
83894;BME280;73920;51.902;6.374;2023-12-20T05:30:46;101389.19;;;5.81;89.05
83894;BME280;73920;51.902;6.374;2023-12-20T05:33:12;101383.88;;;5.81;89.23
83894;BME280;73920;51.902;6.374;2023-12-20T05:35:38;101385.66;;;5.80;89.13
83894;BME280;73920;51.902;6.374;2023-12-20T05:38:04;101380.25;;;5.83;89.18
83894;BME280;73920;51.902;6.374;2023-12-20T05:40:30;101382.03;;;5.83;89.12
83894;BME280;73920;51.902;6.374;2023-12-20T05:42:56;101390.81;;;5.86;89.14
83894;BME280;73920;51.902;6.374;2023-12-20T05:45:23;101388.06;;;5.91;89.07
83894;BME280;73920;51.902;6.374;2023-12-20T05:47:49;101394.13;;;5.96;89.21
83894;BME280;73920;51.902;6.374;2023-12-20T05:50:15;101391.28;;;6.02;89.24
83894;BME280;73920;51.902;6.374;2023-12-20T05:52:41;101399.13;;;6.07;88.93
83894;BME280;73920;51.902;6.374;2023-12-20T05:55:08;101393.72;;;6.11;88.94
83894;BME280;73920;51.902;6.374;2023-12-20T05:57:35;101395.34;;;6.15;88.61
83894;BME280;73920;51.902;6.374;2023-12-20T06:00:01;101405.91;;;6.18;88.78
83894;BME280;73920;51.902;6.374;2023-12-20T06:02:27;101398.72;;;6.22;88.46
83894;BME280;73920;51.902;6.374;2023-12-20T06:04:53;101408.38;;;6.24;88.73
83894;BME280;73920;51.902;6.374;2023-12-20T06:07:19;101402.16;;;6.25;88.30
83894;BME280;73920;51.902;6.374;2023-12-20T06:09:46;101411.75;;;6.29;88.24
83894;BME280;73920;51.902;6.374;2023-12-20T06:12:12;101408.19;;;6.30;88.50
83894;BME280;73920;51.902;6.374;2023-12-20T06:14:38;101405.50;;;6.32;88.10
83894;BME280;73920;51.902;6.374;2023-12-20T06:17:04;101409.84;;;6.34;88.17
83894;BME280;73920;51.902;6.374;2023-12-20T06:19:30;101406.28;;;6.35;88.38
83894;BME280;73920;51.902;6.374;2023-12-20T06:21:57;101419.47;;;6.38;88.25
83894;BME280;73920;51.902;6.374;2023-12-20T06:24:23;101415.03;;;6.39;88.01
83894;BME280;73920;51.902;6.374;2023-12-20T06:26:49;101414.16;;;6.40;87.87
83894;BME280;73920;51.902;6.374;2023-12-20T06:29:15;101414.97;;;6.42;88.09
83894;BME280;73920;51.902;6.374;2023-12-20T06:31:41;101408.69;;;6.44;88.00
83894;BME280;73920;51.902;6.374;2023-12-20T06:34:07;101399.81;;;6.46;87.99
83894;BME280;73920;51.902;6.374;2023-12-20T06:36:34;101389.19;;;6.46;87.65
83894;BME280;73920;51.902;6.374;2023-12-20T06:39:00;101392.66;;;6.48;87.67
83894;BME280;73920;51.902;6.374;2023-12-20T06:41:26;101383.84;;;6.47;87.67
83894;BME280;73920;51.902;6.374;2023-12-20T06:43:52;101383.78;;;6.49;87.84
83894;BME280;73920;51.902;6.374;2023-12-20T06:46:18;101378.47;;;6.49;88.04
83894;BME280;73920;51.902;6.374;2023-12-20T06:48:45;101384.62;;;6.51;87.58
83894;BME280;73920;51.902;6.374;2023-12-20T06:51:20;101388.12;;;6.51;87.90
83894;BME280;73920;51.902;6.374;2023-12-20T06:53:46;101392.59;;;6.51;87.59
83894;BME280;73920;51.902;6.374;2023-12-20T06:56:12;101391.62;;;6.53;87.75
83894;BME280;73920;51.902;6.374;2023-12-20T06:58:38;101388.06;;;6.54;87.53
83894;BME280;73920;51.902;6.374;2023-12-20T07:01:04;101393.31;;;6.56;87.52
83894;BME280;73920;51.902;6.374;2023-12-20T07:03:31;101397.72;;;6.57;87.33
83894;BME280;73920;51.902;6.374;2023-12-20T07:05:57;101391.53;;;6.56;87.38
83894;BME280;73920;51.902;6.374;2023-12-20T07:08:23;101387.88;;;6.59;87.39
83894;BME280;73920;51.902;6.374;2023-12-20T07:10:49;101385.28;;;6.57;87.53
83894;BME280;73920;51.902;6.374;2023-12-20T07:13:15;101378.19;;;6.58;87.33
83894;BME280;73920;51.902;6.374;2023-12-20T07:15:41;101386.97;;;6.60;87.69
83894;BME280;73920;51.902;6.374;2023-12-20T07:18:08;101381.66;;;6.60;87.60
83894;BME280;73920;51.902;6.374;2023-12-20T07:20:34;101382.53;;;6.60;87.31
83894;BME280;73920;51.902;6.374;2023-12-20T07:23:00;101378.09;;;6.61;87.49
83894;BME280;73920;51.902;6.374;2023-12-20T07:25:27;101368.47;;;6.57;87.02
83894;BME280;73920;51.902;6.374;2023-12-20T07:27:53;101375.34;;;6.64;87.11
83894;BME280;73920;51.902;6.374;2023-12-20T07:30:19;101351.03;;;6.48;87.13
83894;BME280;73920;51.902;6.374;2023-12-20T07:32:46;101372.59;;;6.67;87.02
83894;BME280;73920;51.902;6.374;2023-12-20T07:35:12;101376.09;;;6.69;86.72
83894;BME280;73920;51.902;6.374;2023-12-20T07:37:38;101387.53;;;6.71;86.74
83894;BME280;73920;51.902;6.374;2023-12-20T07:40:05;101377.78;;;6.71;86.71
83894;BME280;73920;51.902;6.374;2023-12-20T07:42:31;101381.31;;;6.72;86.40
83894;BME280;73920;51.902;6.374;2023-12-20T07:44:58;101389.19;;;6.75;86.04
83894;BME280;73920;51.902;6.374;2023-12-20T07:47:24;101389.97;;;6.78;86.11
83894;BME280;73920;51.902;6.374;2023-12-20T07:49:51;101382.91;;;6.77;85.89
83894;BME280;73920;51.902;6.374;2023-12-20T07:52:17;101379.31;;;6.80;86.10
83894;BME280;73920;51.902;6.374;2023-12-20T07:54:44;101379.34;;;6.78;85.79
83894;BME280;73920;51.902;6.374;2023-12-20T07:57:11;101376.59;;;6.81;85.71
83894;BME280;73920;51.902;6.374;2023-12-20T07:59:37;101365.03;;;6.82;85.81
83894;BME280;73920;51.902;6.374;2023-12-20T08:02:04;101382.78;;;6.82;85.97
83894;BME280;73920;51.902;6.374;2023-12-20T08:04:30;101382.78;;;6.82;85.72
83894;BME280;73920;51.902;6.374;2023-12-20T08:06:56;101385.44;;;6.82;85.94
83894;BME280;73920;51.902;6.374;2023-12-20T08:09:23;101391.56;;;6.84;85.79
83894;BME280;73920;51.902;6.374;2023-12-20T08:11:49;101386.31;;;6.82;86.03
83894;BME280;73920;51.902;6.374;2023-12-20T08:14:15;101388.09;;;6.82;85.99
83894;BME280;73920;51.902;6.374;2023-12-20T08:16:42;101387.19;;;6.83;85.59
83894;BME280;73920;51.902;6.374;2023-12-20T08:19:08;101395.16;;;6.83;86.17
83894;BME280;73920;51.902;6.374;2023-12-20T08:21:34;101397.75;;;6.84;85.43
83894;BME280;73920;51.902;6.374;2023-12-20T08:24:01;101396.84;;;6.85;85.72
83894;BME280;73920;51.902;6.374;2023-12-20T08:26:27;101396.03;;;6.83;85.88
83894;BME280;73920;51.902;6.374;2023-12-20T08:28:53;101399.53;;;6.84;85.88
83894;BME280;73920;51.902;6.374;2023-12-20T08:31:19;101388.97;;;6.82;85.57
83894;BME280;73920;51.902;6.374;2023-12-20T08:33:47;101385.44;;;6.82;85.67
83894;BME280;73920;51.902;6.374;2023-12-20T08:36:13;101386.34;;;6.81;85.53
83894;BME280;73920;51.902;6.374;2023-12-20T08:38:40;101388.12;;;6.80;85.65
83894;BME280;73920;51.902;6.374;2023-12-20T08:41:07;101391.66;;;6.81;85.58
83894;BME280;73920;51.902;6.374;2023-12-20T08:43:34;101396.97;;;6.81;85.62
83894;BME280;73920;51.902;6.374;2023-12-20T08:46:01;101383.69;;;6.81;85.70
83894;BME280;73920;51.902;6.374;2023-12-20T08:48:28;101385.47;;;6.80;85.97
83894;BME280;73920;51.902;6.374;2023-12-20T08:50:54;101388.12;;;6.80;85.16
83894;BME280;73920;51.902;6.374;2023-12-20T08:53:21;101381.03;;;6.81;85.31
83894;BME280;73920;51.902;6.374;2023-12-20T08:55:47;101382.87;;;6.79;85.22
83894;BME280;73920;51.902;6.374;2023-12-20T08:58:14;101381.12;;;6.78;85.13
83894;BME280;73920;51.902;6.374;2023-12-20T09:00:40;101380.22;;;6.79;85.40
83894;BME280;73920;51.902;6.374;2023-12-20T09:03:06;101374.91;;;6.79;85.76
83894;BME280;73920;51.902;6.374;2023-12-20T09:05:33;101359.81;;;6.79;85.56
83894;BME280;73920;51.902;6.374;2023-12-20T09:07:59;101359.81;;;6.79;85.09
83894;BME280;73920;51.902;6.374;2023-12-20T09:10:25;101369.59;;;6.79;85.53
83894;BME280;73920;51.902;6.374;2023-12-20T09:12:52;101363.34;;;6.80;85.64
83894;BME280;73920;51.902;6.374;2023-12-20T09:15:18;101370.41;;;6.81;86.03
83894;BME280;73920;51.902;6.374;2023-12-20T09:17:45;101362.31;;;6.84;86.08
83894;BME280;73920;51.902;6.374;2023-12-20T09:20:11;101366.72;;;6.85;86.22
83894;BME280;73920;51.902;6.374;2023-12-20T09:22:37;101364.97;;;6.84;85.75
83894;BME280;73920;51.902;6.374;2023-12-20T09:25:04;101364.97;;;6.84;86.09
83894;BME280;73920;51.902;6.374;2023-12-20T09:27:30;101375.59;;;6.84;86.16
83894;BME280;73920;51.902;6.374;2023-12-20T09:29:57;101359.63;;;6.85;86.26
83894;BME280;73920;51.902;6.374;2023-12-20T09:32:23;101363.25;;;6.83;86.32
83894;BME280;73920;51.902;6.374;2023-12-20T09:34:49;101364.12;;;6.83;86.45
83894;BME280;73920;51.902;6.374;2023-12-20T09:37:15;101364.06;;;6.85;86.25
83894;BME280;73920;51.902;6.374;2023-12-20T09:39:41;101370.22;;;6.87;86.81
83894;BME280;73920;51.902;6.374;2023-12-20T09:42:08;101376.37;;;6.87;86.57
83894;BME280;73920;51.902;6.374;2023-12-20T09:44:35;101377.25;;;6.88;86.98
83894;BME280;73920;51.902;6.374;2023-12-20T09:47:03;101366.53;;;6.91;87.20
83894;BME280;73920;51.902;6.374;2023-12-20T09:49:30;101370.03;;;6.93;87.14
83894;BME280;73920;51.902;6.374;2023-12-20T09:51:57;101377.09;;;6.94;87.27
83894;BME280;73920;51.902;6.374;2023-12-20T09:54:24;101366.34;;;6.97;87.41
83894;BME280;73920;51.902;6.374;2023-12-20T09:56:51;101375.13;;;6.99;86.94
83894;BME280;73920;51.902;6.374;2023-12-20T09:59:17;101376.78;;;7.03;86.67
83894;BME280;73920;51.902;6.374;2023-12-20T10:01:43;101366.94;;;7.07;87.34
83894;BME280;73920;51.902;6.374;2023-12-20T10:04:11;101375.78;;;7.07;87.39
83894;BME280;73920;51.902;6.374;2023-12-20T10:06:39;101373.94;;;7.09;87.25
83894;BME280;73920;51.902;6.374;2023-12-20T10:09:06;101374.88;;;7.08;86.83
83894;BME280;73920;51.902;6.374;2023-12-20T10:11:32;101380.28;;;7.05;86.89
83894;BME280;73920;51.902;6.374;2023-12-20T10:14:01;101372.13;;;7.10;87.45
83894;BME280;73920;51.902;6.374;2023-12-20T10:16:28;101376.50;;;7.12;87.32
83894;BME280;73920;51.902;6.374;2023-12-20T10:18:55;101367.59;;;7.13;87.30
83894;BME280;73920;51.902;6.374;2023-12-20T10:21:22;101380.88;;;7.13;86.92
83894;BME280;73920;51.902;6.374;2023-12-20T10:23:49;101379.94;;;7.16;87.04
83894;BME280;73920;51.902;6.374;2023-12-20T10:26:26;101382.53;;;7.17;87.54
83894;BME280;73920;51.902;6.374;2023-12-20T10:28:59;101374.53;;;7.19;87.43
83894;BME280;73920;51.902;6.374;2023-12-20T10:31:31;101378.88;;;7.21;87.51
83894;BME280;73920;51.902;6.374;2023-12-20T10:33:58;101388.59;;;7.22;87.26
83894;BME280;73920;51.902;6.374;2023-12-20T10:36:30;101391.19;;;7.24;87.35
83894;BME280;73920;51.902;6.374;2023-12-20T10:38:58;101376.97;;;7.25;87.39
83894;BME280;73920;51.902;6.374;2023-12-20T10:41:29;101381.25;;;7.30;87.09
83894;BME280;73920;51.902;6.374;2023-12-20T10:44:03;101377.62;;;7.31;87.26
83894;BME280;73920;51.902;6.374;2023-12-20T10:46:30;101367.88;;;7.32;86.90
83894;BME280;73920;51.902;6.374;2023-12-20T10:48:58;101378.38;;;7.36;86.97
83894;BME280;73920;51.902;6.374;2023-12-20T10:51:25;101378.16;;;7.42;86.73
83894;BME280;73920;51.902;6.374;2023-12-20T10:53:52;101377.03;;;7.50;86.32
83894;BME280;73920;51.902;6.374;2023-12-20T10:56:19;101368.91;;;7.54;86.73
83894;BME280;73920;51.902;6.374;2023-12-20T10:58:47;101368.69;;;7.60;86.44
83894;BME280;73920;51.902;6.374;2023-12-20T11:01:15;101361.66;;;7.59;86.21
83894;BME280;73920;51.902;6.374;2023-12-20T11:09:16;101355.34;;;7.62;86.51
83894;BME280;73920;51.902;6.374;2023-12-20T11:11:50;101363.25;;;7.63;86.20
83894;BME280;73920;51.902;6.374;2023-12-20T11:14:24;101352.59;;;7.63;86.53
83894;BME280;73920;51.902;6.374;2023-12-20T11:17:06;101350.78;;;7.65;86.08
83894;BME280;73920;51.902;6.374;2023-12-20T11:19:32;101328.63;;;7.65;86.23
83894;BME280;73920;51.902;6.374;2023-12-20T11:21:58;101339.16;;;7.68;86.50
83894;BME280;73920;51.902;6.374;2023-12-20T11:24:25;101338.09;;;7.73;86.68
83894;BME280;73920;51.902;6.374;2023-12-20T11:26:56;101339.72;;;7.77;85.93
83894;BME280;73920;51.902;6.374;2023-12-20T11:29:33;101345.81;;;7.81;86.02
83894;BME280;73920;51.902;6.374;2023-12-20T11:32:01;101335.06;;;7.84;85.57
83894;BME280;73920;51.902;6.374;2023-12-20T11:34:31;101332.16;;;7.90;86.03
83894;BME280;73920;51.902;6.374;2023-12-20T11:36:58;101330.22;;;7.95;85.90
83894;BME280;73920;51.902;6.374;2023-12-20T11:39:26;101319.38;;;8.00;85.47
83894;BME280;73920;51.902;6.374;2023-12-20T11:41:55;101316.53;;;8.04;85.42
83894;BME280;73920;51.902;6.374;2023-12-20T11:44:21;101316.34;;;8.10;85.81
83894;BME280;73920;51.902;6.374;2023-12-20T11:46:47;101316.34;;;8.10;85.31
83894;BME280;73920;51.902;6.374;2023-12-20T11:49:13;101314.53;;;8.11;84.96
83894;BME280;73920;51.902;6.374;2023-12-20T11:51:43;101307.53;;;8.08;84.85
83894;BME280;73920;51.902;6.374;2023-12-20T11:54:10;101305.78;;;8.07;85.59
83894;BME280;73920;51.902;6.374;2023-12-20T11:56:36;101308.41;;;8.09;85.18
83894;BME280;73920;51.902;6.374;2023-12-20T11:59:03;101311.84;;;8.11;85.22
83894;BME280;73920;51.902;6.374;2023-12-20T12:01:31;101312.56;;;8.16;84.95
83894;BME280;73920;51.902;6.374;2023-12-20T12:04:05;101316.09;;;8.16;84.42
83894;BME280;73920;51.902;6.374;2023-12-20T12:06:33;101305.50;;;8.15;84.91
83894;BME280;73920;51.902;6.374;2023-12-20T12:08:59;101308.34;;;8.10;84.69
83894;BME280;73920;51.902;6.374;2023-12-20T12:11:25;101304.06;;;8.06;84.83
83894;BME280;73920;51.902;6.374;2023-12-20T12:13:52;101305.03;;;8.04;85.09
83894;BME280;73920;51.902;6.374;2023-12-20T12:16:19;101299.00;;;7.99;84.88
83894;BME280;73920;51.902;6.374;2023-12-20T12:18:45;101298.06;;;8.00;85.18
83894;BME280;73920;51.902;6.374;2023-12-20T12:21:19;101301.41;;;8.06;85.37
83894;BME280;73920;51.902;6.374;2023-12-20T12:23:45;101300.12;;;8.16;85.38
83894;BME280;73920;51.902;6.374;2023-12-20T12:26:11;101297.31;;;8.21;84.98
83894;BME280;73920;51.902;6.374;2023-12-20T12:28:40;101288.34;;;8.22;84.83
83894;BME280;73920;51.902;6.374;2023-12-20T12:31:07;101293.63;;;8.23;84.64
83894;BME280;73920;51.902;6.374;2023-12-20T12:33:34;101282.88;;;8.26;85.10
83894;BME280;73920;51.902;6.374;2023-12-20T12:36:04;101278.28;;;8.31;84.96
83894;BME280;73920;51.902;6.374;2023-12-20T12:38:30;101282.50;;;8.37;84.52
83894;BME280;73920;51.902;6.374;2023-12-20T12:40:57;101273.44;;;8.41;84.45
83894;BME280;73920;51.902;6.374;2023-12-20T12:43:23;101271.53;;;8.45;84.24
83894;BME280;73920;51.902;6.374;2023-12-20T12:45:49;101261.66;;;8.47;84.20
83894;BME280;73920;51.902;6.374;2023-12-20T12:48:16;101259.00;;;8.47;83.93
83894;BME280;73920;51.902;6.374;2023-12-20T12:50:42;101266.09;;;8.48;83.86
83894;BME280;73920;51.902;6.374;2023-12-20T12:53:08;101261.56;;;8.50;84.23
83894;BME280;73920;51.902;6.374;2023-12-20T12:55:35;101246.44;;;8.50;84.13
83894;BME280;73920;51.902;6.374;2023-12-20T12:58:01;101240.47;;;8.44;83.83
83894;BME280;73920;51.902;6.374;2023-12-20T13:00:27;101256.16;;;8.51;83.77
83894;BME280;73920;51.902;6.374;2023-12-20T13:02:54;101255.25;;;8.52;83.15
83894;BME280;73920;51.902;6.374;2023-12-20T13:05:20;101257.22;;;8.47;83.30